createdAt,value
2022-09-27T00:00:44.633Z,1.40
2022-09-27T00:03:11.522Z,1.30
2022-09-27T00:05:39.270Z,2.00
2022-09-27T00:08:06.192Z,2.07
2022-09-27T00:10:32.834Z,1.70
2022-09-27T00:12:59.673Z,1.63
2022-09-27T00:15:26.340Z,1.87
2022-09-27T00:17:53.180Z,1.10
2022-09-27T00:20:20.913Z,1.57
2022-09-27T00:22:48.988Z,2.30
2022-09-27T00:25:16.675Z,1.67
2022-09-27T00:27:43.385Z,1.37
2022-09-27T00:30:11.098Z,1.73
2022-09-27T00:32:38.120Z,1.50
2022-09-27T00:35:05.063Z,2.13
2022-09-27T00:37:31.884Z,1.20
2022-09-27T00:39:58.797Z,1.37
2022-09-27T00:42:25.613Z,1.23
2022-09-27T00:45:14.344Z,1.70
2022-09-27T00:47:49.671Z,1.20
2022-09-27T00:50:51.313Z,1.80
2022-09-27T00:53:23.756Z,1.97
2022-09-27T00:55:57.347Z,2.40
2022-09-27T00:58:30.183Z,2.47
2022-09-27T01:01:02.414Z,2.07
2022-09-27T01:03:51.413Z,2.47
2022-09-27T01:06:20.604Z,2.07
2022-09-27T01:08:48.057Z,1.80
2022-09-27T01:11:26.843Z,1.23
2022-09-27T01:14:27.522Z,1.37
2022-09-27T01:17:03.625Z,1.60
2022-09-27T01:20:12.405Z,1.70
2022-09-27T01:22:46.564Z,1.30
2022-09-27T01:25:38.191Z,1.53
2022-09-27T01:28:10.875Z,1.80
2022-09-27T01:30:48.348Z,1.90
2022-09-27T01:33:23.458Z,1.70
2022-09-27T01:36:07.194Z,2.30
2022-09-27T01:39:09.680Z,2.40
2022-09-27T01:42:21.270Z,2.40
2022-09-27T01:45:16.788Z,2.70
2022-09-27T01:48:01.824Z,2.07
2022-09-27T01:50:50.419Z,2.40
2022-09-27T01:53:23.075Z,1.87
2022-09-27T01:56:18.389Z,1.80
2022-09-27T01:59:00.825Z,1.60
2022-09-27T02:01:32.388Z,1.33
2022-09-27T02:04:02.171Z,1.60
2022-09-27T02:06:53.390Z,1.63
2022-09-27T02:09:35.674Z,1.67
2022-09-27T02:12:24.119Z,1.63
2022-09-27T02:15:02.017Z,1.50
2022-09-27T02:17:44.589Z,1.70
2022-09-27T02:20:26.237Z,1.60
2022-09-27T02:23:05.836Z,2.10
2022-09-27T02:25:58.408Z,1.40
2022-09-27T02:28:35.251Z,1.50
2022-09-27T02:31:02.890Z,1.50
2022-09-27T02:34:21.617Z,1.40
2022-09-27T02:36:48.508Z,1.70
2022-09-27T02:39:16.375Z,1.57
2022-09-27T02:41:43.442Z,1.57
2022-09-27T02:44:13.449Z,1.40
2022-09-27T02:46:49.966Z,1.50
2022-09-27T02:49:42.282Z,1.60
2022-09-27T02:52:42.796Z,1.40
2022-09-27T02:55:32.138Z,1.60
2022-09-27T02:58:17.189Z,1.70
2022-09-27T03:01:21.801Z,1.57
2022-09-27T03:04:06.683Z,1.60
2022-09-27T03:06:34.482Z,1.33
2022-09-27T03:09:01.208Z,1.83
2022-09-27T03:11:27.923Z,1.33
2022-09-27T03:14:08.293Z,1.20
2022-09-27T03:16:39.071Z,1.30
2022-09-27T03:19:28.708Z,1.20
2022-09-27T03:22:24.432Z,1.40
2022-09-27T03:24:51.248Z,1.47
2022-09-27T03:27:17.816Z,1.13
2022-09-27T03:29:44.659Z,1.60
2022-09-27T03:32:11.667Z,1.27
2022-09-27T03:35:14.021Z,1.10
2022-09-27T03:37:41.426Z,1.30
2022-09-27T03:40:09.227Z,1.13
2022-09-27T03:42:38.521Z,0.83
2022-09-27T03:45:06.406Z,1.37
2022-09-27T03:47:32.996Z,1.37
2022-09-27T03:50:00.167Z,1.40
2022-09-27T03:52:26.877Z,1.33
2022-09-27T03:54:56.312Z,1.30
2022-09-27T03:57:25.592Z,1.67
2022-09-27T03:59:52.742Z,1.50
2022-09-27T04:02:42.406Z,1.67
2022-09-27T04:05:21.218Z,1.37
2022-09-27T04:07:48.399Z,1.30
2022-09-27T04:10:17.168Z,1.10
2022-09-27T04:12:44.471Z,1.63
2022-09-27T04:15:12.174Z,1.27
2022-09-27T04:17:51.468Z,1.20
2022-09-27T04:20:34.241Z,1.60
2022-09-27T04:23:05.204Z,1.70
2022-09-27T04:25:34.999Z,1.40
2022-09-27T04:28:08.921Z,1.70
2022-09-27T04:30:35.830Z,1.47
2022-09-27T04:33:11.433Z,1.37
2022-09-27T04:36:18.934Z,1.30
2022-09-27T04:39:11.971Z,1.73
2022-09-27T04:41:45.687Z,1.20
2022-09-27T04:44:13.249Z,1.80
2022-09-27T04:46:45.664Z,1.50
2022-09-27T04:49:12.918Z,1.20
2022-09-27T04:51:39.717Z,1.10
2022-09-27T04:54:06.451Z,1.40
2022-09-27T04:56:36.884Z,1.50
2022-09-27T04:59:09.819Z,1.60
2022-09-27T05:01:38.379Z,1.43
2022-09-27T05:04:30.362Z,1.27
2022-09-27T05:06:57.449Z,1.40
2022-09-27T05:09:40.208Z,1.30
2022-09-27T05:12:08.675Z,1.53
2022-09-27T05:14:56.579Z,1.47
2022-09-27T05:17:41.558Z,1.17
2022-09-27T05:20:26.979Z,1.57
2022-09-27T05:22:58.677Z,1.30
2022-09-27T05:25:25.733Z,1.37
2022-09-27T05:27:52.829Z,1.47
2022-09-27T05:30:20.085Z,1.13
2022-09-27T05:32:50.548Z,1.10
2022-09-27T05:35:38.620Z,1.30
2022-09-27T05:38:07.755Z,1.30
2022-09-27T05:40:41.439Z,1.30
2022-09-27T05:43:10.093Z,1.27
2022-09-27T05:45:36.941Z,1.30
2022-09-27T05:48:05.352Z,1.30
2022-09-27T05:50:36.609Z,1.60
2022-09-27T05:53:04.075Z,1.60
2022-09-27T05:55:30.890Z,1.47
2022-09-27T05:58:00.029Z,1.37
2022-09-27T06:00:38.841Z,1.30
2022-09-27T06:03:20.476Z,1.17
2022-09-27T06:06:06.459Z,1.10
2022-09-27T06:08:44.028Z,1.67
2022-09-27T06:11:13.391Z,1.30
2022-09-27T06:13:40.583Z,1.20
2022-09-27T06:16:11.689Z,1.20
2022-09-27T06:18:42.316Z,1.20
2022-09-27T06:21:09.735Z,1.50
2022-09-27T06:23:37.247Z,1.30
2022-09-27T06:26:12.410Z,1.40
2022-09-27T06:29:03.308Z,1.80
2022-09-27T06:31:32.198Z,1.50
2022-09-27T06:34:09.060Z,0.97
2022-09-27T06:36:35.815Z,1.57
2022-09-27T06:39:02.687Z,1.83
2022-09-27T06:41:40.029Z,1.13
2022-09-27T06:44:16.053Z,0.93
2022-09-27T06:47:01.545Z,0.97
2022-09-27T06:49:49.421Z,1.20
2022-09-27T06:52:18.064Z,1.00
2022-09-27T06:54:45.236Z,0.80
2022-09-27T06:57:32.038Z,1.30
2022-09-27T07:00:17.294Z,1.33
2022-09-27T07:03:11.431Z,1.43
2022-09-27T07:06:06.319Z,1.23
2022-09-27T07:08:45.039Z,1.00
2022-09-27T07:11:11.731Z,1.27
2022-09-27T07:13:42.723Z,1.00
2022-09-27T07:16:13.967Z,1.37
2022-09-27T07:18:44.614Z,0.90
2022-09-27T07:21:12.460Z,1.10
2022-09-27T07:23:39.695Z,1.00
2022-09-27T07:26:10.449Z,0.90
2022-09-27T07:28:37.564Z,1.30
2022-09-27T07:31:04.529Z,1.30
2022-09-27T07:33:32.241Z,1.10
2022-09-27T07:36:07.101Z,1.10
2022-09-27T07:38:34.314Z,1.37
2022-09-27T07:41:06.748Z,1.43
2022-09-27T07:43:33.543Z,0.97
2022-09-27T07:46:00.533Z,1.20
2022-09-27T07:48:38.038Z,1.40
2022-09-27T07:51:16.323Z,1.13
2022-09-27T07:53:52.572Z,2.60
2022-09-27T07:56:45.974Z,2.77
2022-09-27T07:59:14.532Z,2.10
2022-09-27T08:01:41.387Z,2.53
2022-09-27T08:04:08.108Z,2.00
2022-09-27T08:06:35.144Z,11.27
2022-09-27T08:09:03.119Z,6.13
2022-09-27T08:11:32.135Z,1.67
2022-09-27T08:13:58.877Z,1.60
2022-09-27T08:16:30.711Z,1.70
2022-09-27T08:19:17.108Z,1.40
2022-09-27T08:21:59.016Z,1.90
2022-09-27T08:24:29.715Z,1.43
2022-09-27T08:27:11.949Z,1.10
2022-09-27T08:29:47.792Z,1.33
2022-09-27T08:32:20.806Z,1.30
2022-09-27T08:34:50.201Z,1.30
2022-09-27T08:37:17.092Z,8.33
2022-09-27T08:39:47.731Z,7.80
2022-09-27T08:42:56.824Z,12.07
2022-09-27T08:45:38.967Z,6.33
2022-09-27T08:48:10.379Z,4.80
2022-09-27T08:50:44.389Z,8.60
2022-09-27T08:53:22.425Z,3.73
2022-09-27T08:55:52.638Z,2.13
2022-09-27T08:58:27.112Z,2.33
2022-09-27T09:00:59.730Z,1.30
2022-09-27T09:03:38.622Z,1.40
2022-09-27T09:06:21.261Z,1.60
2022-09-27T09:09:06.289Z,1.43
2022-09-27T09:12:32.646Z,1.33
2022-09-27T09:15:11.856Z,1.30
2022-09-27T09:18:17.821Z,1.70
2022-09-27T09:21:01.279Z,1.40
2022-09-27T09:23:37.780Z,1.60
2022-09-27T09:26:24.083Z,1.50
2022-09-27T09:29:27.392Z,1.50
2022-09-27T09:32:32.871Z,1.60
2022-09-27T09:35:06.241Z,1.60
2022-09-27T09:37:41.025Z,1.40
2022-09-27T09:40:23.678Z,1.80
2022-09-27T09:43:14.103Z,1.50
2022-09-27T09:45:45.927Z,1.80
2022-09-27T09:48:39.270Z,1.90
2022-09-27T09:51:10.977Z,1.47
2022-09-27T09:53:49.185Z,1.53
2022-09-27T09:56:24.570Z,1.30
2022-09-27T09:58:57.280Z,2.07
2022-09-27T10:01:36.001Z,2.70
2022-09-27T10:04:04.069Z,2.93
2022-09-27T10:06:31.668Z,2.57
2022-09-27T10:09:00.348Z,1.87
2022-09-27T10:11:50.126Z,1.90
2022-09-27T10:14:27.368Z,1.70
2022-09-27T10:17:01.744Z,1.83
2022-09-27T10:19:31.697Z,2.30
2022-09-27T10:22:14.337Z,2.90
2022-09-27T10:24:56.546Z,2.73
2022-09-27T10:27:49.493Z,4.07
2022-09-27T10:30:31.516Z,5.23
2022-09-27T10:33:07.537Z,3.20
2022-09-27T10:35:46.958Z,2.50
2022-09-27T10:38:31.120Z,2.83
2022-09-27T10:41:41.447Z,2.40
2022-09-27T10:44:32.803Z,2.03
2022-09-27T10:47:09.069Z,2.17
2022-09-27T10:49:46.501Z,2.00
2022-09-27T10:52:25.724Z,2.00
2022-09-27T10:55:05.729Z,1.60
2022-09-27T10:57:32.990Z,1.70
2022-09-27T11:00:08.323Z,2.10
2022-09-27T11:02:37.734Z,1.30
2022-09-27T11:05:29.601Z,1.60
2022-09-27T11:08:03.146Z,1.73
2022-09-27T11:10:40.313Z,6.13
2022-09-27T11:13:16.198Z,7.70
2022-09-27T11:16:23.130Z,6.23
2022-09-27T11:19:25.252Z,8.00
2022-09-27T11:22:02.476Z,3.43
2022-09-27T11:25:05.416Z,3.97
2022-09-27T11:27:45.684Z,3.17
2022-09-27T11:30:21.861Z,3.20
2022-09-27T11:33:27.366Z,3.60
2022-09-27T11:36:29.447Z,2.80
2022-09-27T11:39:12.738Z,1.80
2022-09-27T11:42:14.848Z,1.97
2022-09-27T11:45:37.257Z,2.07
2022-09-27T11:48:15.328Z,2.50
2022-09-27T11:50:56.706Z,2.50
2022-09-27T11:53:38.893Z,2.60
2022-09-27T11:56:41.336Z,1.60
2022-09-27T11:59:20.212Z,1.90
2022-09-27T12:01:57.222Z,2.20
2022-09-27T12:04:27.047Z,3.40
2022-09-27T12:07:12.718Z,1.60
2022-09-27T12:09:48.196Z,1.97
2022-09-27T12:12:21.691Z,1.40
2022-09-27T12:14:59.841Z,1.50
2022-09-27T12:17:36.066Z,1.60
2022-09-27T12:20:14.218Z,2.37
2022-09-27T12:23:01.036Z,1.27
2022-09-27T12:25:42.922Z,1.40
2022-09-27T12:28:33.892Z,1.30
2022-09-27T12:31:28.947Z,2.13
2022-09-27T12:34:30.159Z,2.03
2022-09-27T12:37:16.994Z,1.70
2022-09-27T12:40:21.544Z,2.30
2022-09-27T12:43:00.579Z,1.60
2022-09-27T12:46:27.333Z,2.03
2022-09-27T12:49:22.457Z,1.50
2022-09-27T12:51:57.621Z,1.50
2022-09-27T12:54:54.253Z,1.73
2022-09-27T12:57:33.040Z,1.47
2022-09-27T13:00:30.413Z,1.40
2022-09-27T13:03:26.304Z,1.50
2022-09-27T13:06:34.279Z,1.80
2022-09-27T13:09:19.915Z,1.73
2022-09-27T13:11:54.534Z,2.40
2022-09-27T13:14:26.358Z,1.93
2022-09-27T13:16:53.694Z,2.63
2022-09-27T13:19:37.708Z,1.77
2022-09-27T13:22:28.236Z,2.13
2022-09-27T13:25:55.538Z,1.37
2022-09-27T13:28:33.503Z,1.50
2022-09-27T13:31:10.930Z,3.90
2022-09-27T13:33:45.315Z,13.13
2022-09-27T13:36:28.257Z,6.77
2022-09-27T13:39:04.933Z,6.10
2022-09-27T13:42:04.678Z,3.53
2022-09-27T13:44:49.894Z,4.63
2022-09-27T13:47:38.126Z,2.10
2022-09-27T13:50:29.262Z,2.30
2022-09-27T13:53:23.542Z,2.40
2022-09-27T13:55:53.836Z,2.57
2022-09-27T13:58:35.559Z,2.10
2022-09-27T14:01:25.935Z,2.27
2022-09-27T14:03:56.580Z,3.27
2022-09-27T14:06:32.118Z,1.93
2022-09-27T14:09:04.876Z,4.30
2022-09-27T14:11:39.356Z,4.43
2022-09-27T14:14:14.062Z,4.00
2022-09-27T14:16:47.706Z,6.57
2022-09-27T14:19:18.691Z,18.13
2022-09-27T14:21:47.007Z,3.37
2022-09-27T14:24:31.845Z,3.10
2022-09-27T14:27:08.737Z,3.50
2022-09-27T14:30:02.762Z,3.60
2022-09-27T14:32:35.116Z,2.27
2022-09-27T14:35:32.372Z,2.07
2022-09-27T14:38:15.673Z,2.07
2022-09-27T14:41:01.999Z,2.23
2022-09-27T14:43:30.151Z,2.90
2022-09-27T14:46:01.973Z,3.53
2022-09-27T14:48:37.061Z,2.40
2022-09-27T14:51:14.587Z,2.23
2022-09-27T14:53:45.365Z,2.30
2022-09-27T14:56:19.239Z,2.80
2022-09-27T14:58:48.159Z,1.93
2022-09-27T15:01:23.680Z,2.30
2022-09-27T15:03:50.808Z,2.27
2022-09-27T15:06:18.347Z,2.13
2022-09-27T15:08:49.283Z,2.63
2022-09-27T15:11:19.102Z,3.17
2022-09-27T15:13:50.564Z,4.17
2022-09-27T15:16:20.715Z,3.73
2022-09-27T15:18:50.511Z,3.70
2022-09-27T15:21:29.271Z,4.47
2022-09-27T15:23:56.709Z,2.53
2022-09-27T15:26:27.178Z,3.10
2022-09-27T15:28:54.029Z,2.60
2022-09-27T15:32:00.833Z,3.70
2022-09-27T15:34:29.920Z,5.50
2022-09-27T15:37:03.440Z,6.03
2022-09-27T15:39:35.781Z,6.07
2022-09-27T15:42:10.015Z,6.83
2022-09-27T15:44:38.130Z,5.13
2022-09-27T15:47:05.175Z,6.60
2022-09-27T15:49:35.885Z,8.30
2022-09-27T15:52:05.139Z,5.60
2022-09-27T15:54:34.666Z,5.43
2022-09-27T15:57:05.450Z,3.90
2022-09-27T15:59:35.125Z,5.77
2022-09-27T16:02:17.309Z,6.43
2022-09-27T16:04:44.895Z,5.80
2022-09-27T16:07:14.896Z,7.60
2022-09-27T16:09:41.510Z,5.47
2022-09-27T16:12:09.012Z,3.70
2022-09-27T16:14:35.594Z,4.37
2022-09-27T16:17:02.263Z,3.27
2022-09-27T16:19:29.033Z,2.57
2022-09-27T16:21:55.655Z,4.10
2022-09-27T16:24:23.744Z,4.30
2022-09-27T16:26:50.763Z,3.67
2022-09-27T16:29:17.474Z,3.07
2022-09-27T16:31:44.310Z,2.93
2022-09-27T16:34:11.781Z,4.67
2022-09-27T16:36:39.663Z,2.90
2022-09-27T16:39:08.016Z,2.97
2022-09-27T16:41:34.805Z,2.50
2022-09-27T16:44:13.367Z,4.77
2022-09-27T16:46:41.774Z,3.60
2022-09-27T16:49:31.912Z,4.20
2022-09-27T16:52:01.935Z,3.60
2022-09-27T16:54:29.672Z,3.37
2022-09-27T16:56:58.024Z,2.67
2022-09-27T16:59:25.242Z,2.83
2022-09-27T17:01:52.525Z,2.40
2022-09-27T17:04:19.250Z,2.30
2022-09-27T17:06:46.133Z,2.73
2022-09-27T17:09:12.782Z,1.50
2022-09-27T17:11:39.430Z,3.37
2022-09-27T17:14:06.147Z,10.90
2022-09-27T17:16:33.282Z,7.00
2022-09-27T17:19:00.122Z,7.70
2022-09-27T17:21:26.818Z,8.17
2022-09-27T17:23:53.524Z,5.03
2022-09-27T17:26:22.281Z,5.33
2022-09-27T17:28:49.908Z,6.47
2022-09-27T17:31:18.769Z,8.07
2022-09-27T17:33:55.497Z,5.67
2022-09-27T17:36:28.061Z,3.57
2022-09-27T17:38:54.882Z,12.30
2022-09-27T17:41:24.395Z,7.27
2022-09-27T17:43:59.585Z,3.83
2022-09-27T17:46:34.570Z,2.23
2022-09-27T17:49:21.257Z,2.80
2022-09-27T17:51:50.203Z,2.73
2022-09-27T17:54:19.571Z,2.40
2022-09-27T17:56:47.074Z,2.30
2022-09-27T17:59:17.431Z,1.77
2022-09-27T18:01:47.712Z,1.80
2022-09-27T18:04:16.917Z,1.80
2022-09-27T18:06:46.159Z,2.20
2022-09-27T18:09:15.268Z,2.00
2022-09-27T18:11:42.688Z,1.60
2022-09-27T18:14:10.647Z,1.90
2022-09-27T18:16:42.859Z,2.10
2022-09-27T18:19:14.695Z,2.27
2022-09-27T18:21:41.437Z,2.30
2022-09-27T18:24:09.632Z,2.17
2022-09-27T18:26:38.341Z,2.00
2022-09-27T18:29:09.577Z,1.70
2022-09-27T18:31:36.473Z,2.20
2022-09-27T18:34:03.877Z,1.40
2022-09-27T18:36:30.662Z,1.93
2022-09-27T18:38:59.724Z,2.23
2022-09-27T18:41:29.125Z,3.43
2022-09-27T18:43:59.239Z,6.57
2022-09-27T18:46:36.191Z,10.57
2022-09-27T18:49:10.353Z,4.70
2022-09-27T18:51:39.865Z,8.23
2022-09-27T18:54:11.409Z,6.90
2022-09-27T18:56:41.220Z,6.90
2022-09-27T18:59:09.503Z,10.23
2022-09-27T19:01:39.623Z,3.40
2022-09-27T19:04:09.011Z,3.13
2022-09-27T19:06:37.107Z,2.80
2022-09-27T19:09:04.720Z,2.70
2022-09-27T19:11:31.883Z,2.40
2022-09-27T19:13:59.667Z,2.37
2022-09-27T19:16:27.830Z,2.20
2022-09-27T19:18:54.974Z,2.27
2022-09-27T19:21:24.791Z,2.63
2022-09-27T19:23:51.944Z,2.40
2022-09-27T19:26:21.429Z,2.30
2022-09-27T19:28:48.779Z,2.73
2022-09-27T19:31:18.648Z,2.37
2022-09-27T19:33:45.540Z,3.00
2022-09-27T19:36:16.567Z,2.40
2022-09-27T19:38:43.559Z,4.87
2022-09-27T19:41:12.901Z,3.97
2022-09-27T19:43:39.839Z,12.87
2022-09-27T19:46:13.037Z,8.83
2022-09-27T19:48:39.787Z,5.63
2022-09-27T19:51:07.410Z,3.97
2022-09-27T19:53:34.759Z,3.73
2022-09-27T19:56:07.011Z,3.33
2022-09-27T19:58:35.623Z,3.33
2022-09-27T20:01:08.007Z,2.47
2022-09-27T20:03:37.173Z,2.20
2022-09-27T20:06:07.073Z,2.50
2022-09-27T20:08:33.765Z,2.37
2022-09-27T20:11:09.977Z,2.27
2022-09-27T20:13:37.756Z,2.23
2022-09-27T20:16:10.822Z,2.47
2022-09-27T20:18:46.076Z,2.30
2022-09-27T20:21:13.112Z,2.83
2022-09-27T20:23:40.093Z,5.83
2022-09-27T20:26:13.053Z,5.20
2022-09-27T20:28:47.953Z,7.37
2022-09-27T20:31:17.828Z,2.67
2022-09-27T20:33:49.583Z,3.00
2022-09-27T20:36:20.571Z,3.30
2022-09-27T20:39:02.870Z,5.60
2022-09-27T20:41:32.662Z,4.63
2022-09-27T20:44:03.315Z,2.70
2022-09-27T20:46:30.769Z,2.10
2022-09-27T20:49:05.881Z,2.10
2022-09-27T20:51:35.605Z,3.50
2022-09-27T20:54:04.025Z,3.10
2022-09-27T20:56:34.893Z,3.20
2022-09-27T20:59:04.726Z,6.53
2022-09-27T21:01:32.574Z,3.73
2022-09-27T21:04:04.946Z,2.67
2022-09-27T21:06:32.662Z,3.27
2022-09-27T21:09:00.424Z,2.50
2022-09-27T21:11:27.420Z,2.23
2022-09-27T21:13:54.571Z,2.17
2022-09-27T21:16:27.475Z,2.40
2022-09-27T21:18:56.346Z,1.90
2022-09-27T21:21:24.537Z,1.97
2022-09-27T21:23:59.570Z,1.80
2022-09-27T21:26:28.724Z,2.10
2022-09-27T21:28:56.894Z,2.23
2022-09-27T21:31:29.830Z,2.27
2022-09-27T21:33:59.146Z,1.90
2022-09-27T21:36:28.273Z,1.67
2022-09-27T21:38:55.958Z,1.73
2022-09-27T21:41:22.979Z,3.50
2022-09-27T21:43:49.982Z,5.10
2022-09-27T21:46:20.630Z,3.37
2022-09-27T21:48:49.239Z,8.23
2022-09-27T21:51:21.270Z,3.50
2022-09-27T21:53:53.610Z,4.03
2022-09-27T21:56:21.938Z,4.33
2022-09-27T21:58:49.261Z,2.90
2022-09-27T22:01:18.858Z,2.73
2022-09-27T22:03:46.522Z,3.47
2022-09-27T22:06:17.102Z,2.63
2022-09-27T22:08:44.740Z,2.03
2022-09-27T22:11:14.971Z,2.00
2022-09-27T22:13:41.687Z,2.40
2022-09-27T22:16:14.265Z,5.20
2022-09-27T22:18:45.149Z,5.27
2022-09-27T22:21:17.089Z,8.27
2022-09-27T22:23:45.413Z,3.37
2022-09-27T22:26:18.152Z,3.20
2022-09-27T22:28:46.258Z,2.57
2022-09-27T22:31:15.767Z,2.37
2022-09-27T22:33:42.975Z,1.83
2022-09-27T22:36:09.804Z,2.00
2022-09-27T22:38:36.491Z,2.77
2022-09-27T22:41:03.309Z,2.80
2022-09-27T22:43:30.470Z,2.50
2022-09-27T22:45:57.664Z,2.17
2022-09-27T22:48:24.291Z,3.20
2022-09-27T22:50:51.031Z,3.57
2022-09-27T22:53:17.669Z,2.50
2022-09-27T22:55:44.236Z,5.47
2022-09-27T22:58:10.847Z,3.57
2022-09-27T23:00:38.656Z,3.17
2022-09-27T23:03:05.303Z,4.13
2022-09-27T23:05:31.884Z,3.47
2022-09-27T23:07:58.474Z,3.20
2022-09-27T23:10:25.223Z,4.63
2022-09-27T23:12:58.202Z,16.10
2022-09-27T23:15:24.864Z,5.93
2022-09-27T23:17:51.658Z,2.23
2022-09-27T23:20:18.649Z,1.87
2022-09-27T23:22:45.758Z,1.77
2022-09-27T23:25:13.198Z,1.90
2022-09-27T23:27:42.477Z,2.60
2022-09-27T23:30:09.885Z,2.33
2022-09-27T23:32:36.670Z,1.67
2022-09-27T23:35:04.138Z,2.00
2022-09-27T23:37:30.849Z,4.70
2022-09-27T23:39:57.566Z,1.90
2022-09-27T23:42:24.229Z,2.63
2022-09-27T23:44:52.577Z,3.20
2022-09-27T23:47:19.281Z,2.30
2022-09-27T23:49:45.962Z,2.40
2022-09-27T23:52:12.688Z,2.23
2022-09-27T23:54:39.259Z,1.90
2022-09-27T23:57:06.109Z,1.43
2022-09-27T23:59:32.749Z,1.77
